createdAt,value
2018-05-18T00:00:53.659Z,7.70
2018-05-18T00:03:22.760Z,8.27
2018-05-18T00:05:51.943Z,9.17
2018-05-18T00:08:21.133Z,7.67
2018-05-18T00:10:50.228Z,6.67
2018-05-18T00:13:19.344Z,6.77
2018-05-18T00:15:48.435Z,7.10
2018-05-18T00:18:17.609Z,7.00
2018-05-18T00:20:46.817Z,8.00
2018-05-18T00:23:15.908Z,6.93
2018-05-18T00:25:45.016Z,6.87
2018-05-18T00:28:14.203Z,8.07
2018-05-18T00:30:43.318Z,7.00
2018-05-18T00:33:13.410Z,6.23
2018-05-18T00:35:42.517Z,7.03
2018-05-18T00:38:11.619Z,7.43
2018-05-18T00:40:40.790Z,6.30
2018-05-18T00:43:09.897Z,7.50
2018-05-18T00:45:38.993Z,7.60
2018-05-18T00:48:08.106Z,7.07
2018-05-18T00:50:37.286Z,6.77
2018-05-18T00:53:06.380Z,7.40
2018-05-18T00:55:40.578Z,8.30
2018-05-18T00:58:09.676Z,7.40
2018-05-18T01:00:38.877Z,7.27
2018-05-18T01:03:08.061Z,6.90
2018-05-18T01:05:37.324Z,7.03
2018-05-18T01:08:06.472Z,6.73
2018-05-18T01:10:36.686Z,7.13
2018-05-18T01:13:05.875Z,7.87
2018-05-18T01:15:35.081Z,7.27
2018-05-18T01:18:04.244Z,6.80
2018-05-18T01:20:33.349Z,6.40
2018-05-18T01:23:02.460Z,5.90
2018-05-18T01:25:31.653Z,7.80
2018-05-18T01:28:00.771Z,6.43
2018-05-18T01:30:29.944Z,6.93
2018-05-18T01:32:59.052Z,7.60
2018-05-18T01:35:28.240Z,6.23
2018-05-18T01:37:57.348Z,6.53
2018-05-18T01:40:26.437Z,7.83
2018-05-18T01:42:55.549Z,7.20
2018-05-18T01:45:24.710Z,6.97
2018-05-18T01:47:53.831Z,6.07
2018-05-18T01:50:23.005Z,6.00
2018-05-18T01:52:52.188Z,6.87
2018-05-18T01:55:22.053Z,6.33
2018-05-18T01:57:51.179Z,6.70
2018-05-18T02:00:20.302Z,6.07
2018-05-18T02:02:49.523Z,6.60
2018-05-18T02:05:18.612Z,5.93
2018-05-18T02:07:47.772Z,5.63
2018-05-18T02:10:16.973Z,7.77
2018-05-18T02:12:47.049Z,5.83
2018-05-18T02:15:16.161Z,6.70
2018-05-18T02:17:45.257Z,6.33
2018-05-18T02:20:14.367Z,6.33
2018-05-18T02:22:43.564Z,7.20
2018-05-18T02:25:12.761Z,6.27
2018-05-18T02:27:41.878Z,5.80
2018-05-18T02:30:12.085Z,6.13
2018-05-18T02:32:41.273Z,7.30
2018-05-18T02:35:10.470Z,7.70
2018-05-18T02:37:39.565Z,6.90
2018-05-18T02:40:08.689Z,7.80
2018-05-18T02:42:37.855Z,6.83
2018-05-18T02:45:07.084Z,7.30
2018-05-18T02:47:36.205Z,6.50
2018-05-18T02:50:05.348Z,6.70
2018-05-18T02:52:34.565Z,6.50
2018-05-18T02:55:03.744Z,6.80
2018-05-18T02:57:32.845Z,7.50
2018-05-18T03:00:02.039Z,6.83
2018-05-18T03:02:31.326Z,7.47
2018-05-18T03:05:00.536Z,7.17
2018-05-18T03:07:29.711Z,6.30
2018-05-18T03:09:58.842Z,7.70
2018-05-18T03:12:27.922Z,6.70
2018-05-18T03:14:57.117Z,5.80
2018-05-18T03:17:26.211Z,6.80
2018-05-18T03:19:55.326Z,7.10
2018-05-18T03:22:24.431Z,6.40
2018-05-18T03:24:53.558Z,6.63
2018-05-18T03:27:22.692Z,6.30
2018-05-18T03:29:53.816Z,7.57
2018-05-18T03:32:22.905Z,6.30
2018-05-18T03:34:52.098Z,7.07
2018-05-18T03:37:21.305Z,6.80
2018-05-18T03:39:50.489Z,6.07
2018-05-18T03:42:19.717Z,6.70
2018-05-18T03:44:48.833Z,8.57
2018-05-18T03:47:18.904Z,6.17
2018-05-18T03:49:48.113Z,7.57
2018-05-18T03:52:17.261Z,6.30
2018-05-18T03:54:46.354Z,6.83
2018-05-18T03:57:15.477Z,7.00
2018-05-18T03:59:44.596Z,6.23
2018-05-18T04:02:20.017Z,5.70
2018-05-18T04:04:55.052Z,6.40
2018-05-18T04:07:30.190Z,7.33
2018-05-18T04:09:59.641Z,6.40
2018-05-18T04:12:28.802Z,6.57
2018-05-18T04:14:58.089Z,6.70
2018-05-18T04:17:27.184Z,6.90
2018-05-18T04:19:56.285Z,7.40
2018-05-18T04:22:25.478Z,7.27
2018-05-18T04:24:54.667Z,6.60
2018-05-18T04:27:23.773Z,7.90
2018-05-18T04:29:52.862Z,7.00
2018-05-18T04:32:22.065Z,6.03
2018-05-18T04:34:51.247Z,7.33
2018-05-18T04:37:20.338Z,7.03
2018-05-18T04:39:49.426Z,6.77
2018-05-18T04:42:19.758Z,8.60
2018-05-18T04:44:48.954Z,10.50
2018-05-18T04:47:18.094Z,10.77
2018-05-18T04:49:47.189Z,7.00
2018-05-18T04:52:16.540Z,7.97
2018-05-18T04:54:45.725Z,6.67
2018-05-18T04:57:14.830Z,7.17
2018-05-18T04:59:44.044Z,6.67
2018-05-18T05:02:13.264Z,7.20
2018-05-18T05:04:42.370Z,8.10
2018-05-18T05:07:11.504Z,6.97
2018-05-18T05:09:40.600Z,6.37
2018-05-18T05:12:09.697Z,10.20
2018-05-18T05:14:38.894Z,6.93
2018-05-18T05:17:08.098Z,7.50
2018-05-18T05:19:37.185Z,8.50
2018-05-18T05:22:06.313Z,7.60
2018-05-18T05:24:35.473Z,6.33
2018-05-18T05:27:04.573Z,6.40
2018-05-18T05:29:33.689Z,7.00
2018-05-18T05:32:02.869Z,6.77
2018-05-18T05:34:31.976Z,8.07
2018-05-18T05:37:01.088Z,7.27
2018-05-18T05:39:30.198Z,7.73
2018-05-18T05:41:59.335Z,7.87
2018-05-18T05:44:28.528Z,8.63
2018-05-18T05:46:57.740Z,7.60
2018-05-18T05:49:26.777Z,8.00
2018-05-18T05:51:55.878Z,7.83
2018-05-18T05:54:24.997Z,6.90
2018-05-18T05:56:54.105Z,8.23
2018-05-18T05:59:23.302Z,7.93
2018-05-18T06:01:52.393Z,9.50
2018-05-18T06:04:21.581Z,7.50
2018-05-18T06:06:50.886Z,8.57
2018-05-18T06:09:20.080Z,8.83
2018-05-18T06:11:49.176Z,8.27
2018-05-18T06:14:18.373Z,10.00
2018-05-18T06:16:47.571Z,8.87
2018-05-18T06:19:16.670Z,8.40
2018-05-18T06:21:45.861Z,7.37
2018-05-18T06:24:14.958Z,7.80
2018-05-18T06:26:44.062Z,7.33
2018-05-18T06:29:13.163Z,8.00
2018-05-18T06:31:42.333Z,8.13
2018-05-18T06:34:11.429Z,7.47
2018-05-18T06:36:40.633Z,7.03
2018-05-18T06:39:09.770Z,7.90
2018-05-18T06:41:39.135Z,6.97
2018-05-18T06:44:09.441Z,6.47
2018-05-18T06:46:38.536Z,7.10
2018-05-18T06:49:07.690Z,6.97
2018-05-18T06:51:36.841Z,7.23
2018-05-18T06:54:05.916Z,7.67
2018-05-18T06:56:35.074Z,8.03
2018-05-18T06:59:04.162Z,5.97
2018-05-18T07:01:33.303Z,7.97
2018-05-18T07:04:02.584Z,8.20
2018-05-18T07:06:31.600Z,8.47
2018-05-18T07:09:00.697Z,7.60
2018-05-18T07:11:29.990Z,7.07
2018-05-18T07:13:59.140Z,7.43
2018-05-18T07:16:28.343Z,7.13
2018-05-18T07:18:57.452Z,6.17
2018-05-18T07:21:26.567Z,8.17
2018-05-18T07:23:55.787Z,7.00
2018-05-18T07:26:25.050Z,6.80
2018-05-18T07:28:54.144Z,5.97
2018-05-18T07:31:25.093Z,7.30
2018-05-18T07:33:54.332Z,6.57
2018-05-18T07:36:23.485Z,6.53
2018-05-18T07:38:52.585Z,7.03
2018-05-18T07:41:21.781Z,8.00
2018-05-18T07:43:51.031Z,6.83
2018-05-18T07:46:20.165Z,7.20
2018-05-18T07:48:49.262Z,6.50
2018-05-18T07:51:18.564Z,5.87
2018-05-18T07:53:47.750Z,7.90
2018-05-18T07:56:16.948Z,7.27
2018-05-18T07:58:46.053Z,8.47
2018-05-18T08:01:15.237Z,6.83
2018-05-18T08:03:44.326Z,5.97
2018-05-18T08:06:13.549Z,6.80
2018-05-18T08:08:42.736Z,7.30
2018-05-18T08:11:11.937Z,6.87
2018-05-18T08:13:41.258Z,6.83
2018-05-18T08:16:10.364Z,6.90
2018-05-18T08:18:39.565Z,7.10
2018-05-18T08:21:08.659Z,8.37
2018-05-18T08:23:40.512Z,6.53
2018-05-18T08:26:09.705Z,7.17
2018-05-18T08:28:44.754Z,6.83
2018-05-18T08:31:12.469Z,7.10
2018-05-18T08:33:40.013Z,6.57
2018-05-18T08:36:07.463Z,7.13
2018-05-18T08:38:34.931Z,6.97
2018-05-18T08:41:04.129Z,7.10
2018-05-18T08:43:33.248Z,6.80
2018-05-18T08:46:02.418Z,6.47
2018-05-18T08:48:31.501Z,6.93
2018-05-18T08:51:00.610Z,7.53
2018-05-18T08:53:29.704Z,6.60
2018-05-18T08:55:58.817Z,6.77
2018-05-18T08:58:27.949Z,7.07
2018-05-18T09:00:57.076Z,7.00
2018-05-18T09:03:26.180Z,6.43
2018-05-18T09:05:55.392Z,6.03
2018-05-18T09:08:24.507Z,6.27
2018-05-18T09:10:53.653Z,6.43
2018-05-18T09:13:22.767Z,7.07
2018-05-18T09:15:51.944Z,5.97
2018-05-18T09:18:21.042Z,7.43
2018-05-18T09:20:50.546Z,6.53
2018-05-18T09:23:19.737Z,6.30
2018-05-18T09:25:48.859Z,6.50
2018-05-18T09:28:17.965Z,6.93
2018-05-18T09:30:47.053Z,7.17
2018-05-18T09:33:16.147Z,6.87
2018-05-18T09:35:45.274Z,6.80
2018-05-18T09:38:14.440Z,7.27
2018-05-18T09:40:45.870Z,6.67
2018-05-18T09:43:15.057Z,6.63
2018-05-18T09:45:44.253Z,6.60
2018-05-18T09:48:13.657Z,7.27
2018-05-18T09:50:42.771Z,8.63
2018-05-18T09:53:13.758Z,7.43
2018-05-18T09:55:41.266Z,6.83
2018-05-18T09:58:10.453Z,7.07
2018-05-18T10:00:39.670Z,6.30
2018-05-18T10:03:09.668Z,6.47
2018-05-18T10:05:38.849Z,6.73
2018-05-18T10:08:08.048Z,6.33
2018-05-18T10:10:37.133Z,6.67
2018-05-18T10:13:06.329Z,5.70
2018-05-18T10:15:36.349Z,6.60
2018-05-18T10:18:05.545Z,7.43
2018-05-18T10:20:34.657Z,6.70
2018-05-18T10:23:03.760Z,7.13
2018-05-18T10:25:32.932Z,7.33
2018-05-18T10:28:02.040Z,6.70
2018-05-18T10:30:31.258Z,6.40
2018-05-18T10:33:00.514Z,6.60
2018-05-18T10:35:29.935Z,7.33
2018-05-18T10:37:59.230Z,7.20
2018-05-18T10:40:28.353Z,7.03
2018-05-18T10:42:57.474Z,6.03
2018-05-18T10:45:26.687Z,6.50
2018-05-18T10:47:56.744Z,6.43
2018-05-18T10:50:25.918Z,6.33
2018-05-18T10:52:55.016Z,6.70
2018-05-18T10:55:24.150Z,7.90
2018-05-18T10:57:53.301Z,7.33
2018-05-18T11:00:22.409Z,7.30
2018-05-18T11:02:51.589Z,7.37
2018-05-18T11:05:20.731Z,7.33
2018-05-18T11:07:49.784Z,7.47
2018-05-18T11:10:18.993Z,7.50
2018-05-18T11:12:48.173Z,7.00
2018-05-18T11:15:17.282Z,8.30
2018-05-18T11:17:46.463Z,7.63
2018-05-18T11:20:15.658Z,6.97
2018-05-18T11:22:44.773Z,7.03
2018-05-18T11:25:14.022Z,7.70
2018-05-18T11:27:43.524Z,6.97
2018-05-18T11:30:12.626Z,7.93
2018-05-18T11:32:41.838Z,7.43
2018-05-18T11:35:11.042Z,7.77
2018-05-18T11:37:40.229Z,6.43
2018-05-18T11:40:09.357Z,7.07
2018-05-18T11:42:38.454Z,7.17
2018-05-18T11:45:07.577Z,7.53
2018-05-18T11:47:36.705Z,7.73
2018-05-18T11:50:05.975Z,6.40
2018-05-18T11:52:35.104Z,7.57
2018-05-18T11:55:04.317Z,7.07
2018-05-18T11:57:33.491Z,7.43
2018-05-18T12:00:02.608Z,7.07
2018-05-18T12:02:31.827Z,7.53
2018-05-18T12:05:00.905Z,6.53
2018-05-18T12:07:32.045Z,7.30
2018-05-18T12:10:01.207Z,6.90
2018-05-18T12:12:31.313Z,6.77
2018-05-18T12:15:00.530Z,7.30
2018-05-18T12:17:30.645Z,7.20
2018-05-18T12:20:00.326Z,7.17
2018-05-18T12:22:29.439Z,7.23
2018-05-18T12:24:58.535Z,7.00
2018-05-18T12:27:27.729Z,7.43
2018-05-18T12:29:56.952Z,6.43
2018-05-18T12:32:26.142Z,6.50
2018-05-18T12:34:55.257Z,7.57
2018-05-18T12:37:24.484Z,7.00
2018-05-18T12:39:53.617Z,7.57
2018-05-18T12:42:22.715Z,7.50
2018-05-18T12:44:51.821Z,7.17
2018-05-18T12:47:20.906Z,7.67
2018-05-18T12:49:50.016Z,6.93
2018-05-18T12:52:19.130Z,7.17
2018-05-18T12:54:48.289Z,6.63
2018-05-18T12:57:17.397Z,6.70
2018-05-18T12:59:46.589Z,7.00
2018-05-18T13:02:14.038Z,7.07
2018-05-18T13:04:41.656Z,6.50
2018-05-18T13:07:13.628Z,7.37
2018-05-18T13:09:41.096Z,6.90
2018-05-18T13:12:08.667Z,6.53
2018-05-18T13:14:36.113Z,7.27
2018-05-18T13:17:03.667Z,6.77
2018-05-18T13:19:31.123Z,7.30
2018-05-18T13:21:58.642Z,6.93
2018-05-18T13:24:26.138Z,8.00
2018-05-18T13:26:53.707Z,7.00
2018-05-18T13:29:21.261Z,7.70
2018-05-18T13:31:48.713Z,7.07
2018-05-18T13:34:16.282Z,6.80
2018-05-18T13:36:43.821Z,7.50
2018-05-18T13:39:11.401Z,6.57
2018-05-18T13:41:39.865Z,7.60
2018-05-18T13:44:07.345Z,6.80
2018-05-18T13:46:36.565Z,7.20
2018-05-18T13:49:04.078Z,6.37
2018-05-18T13:51:31.638Z,6.27
2018-05-18T13:53:59.468Z,6.30
2018-05-18T13:56:26.982Z,8.33
2018-05-18T13:58:55.194Z,6.20
2018-05-18T14:01:22.881Z,8.20
2018-05-18T14:03:50.355Z,6.13
2018-05-18T14:06:17.897Z,7.40
2018-05-18T14:08:45.358Z,6.50
2018-05-18T14:11:13.237Z,7.67
2018-05-18T14:13:40.678Z,6.50
2018-05-18T14:16:08.231Z,7.10
2018-05-18T14:18:35.781Z,6.90
2018-05-18T14:21:03.307Z,7.43
2018-05-18T14:23:31.547Z,7.03
2018-05-18T14:25:58.999Z,6.97
2018-05-18T14:28:26.852Z,6.23
2018-05-18T14:30:54.312Z,6.60
2018-05-18T14:33:21.866Z,6.60
2018-05-18T14:35:49.298Z,8.03
2018-05-18T14:38:16.862Z,7.03
2018-05-18T14:40:44.311Z,7.00
2018-05-18T14:43:11.808Z,7.07
2018-05-18T14:45:39.241Z,8.23
2018-05-18T14:48:06.852Z,8.50
2018-05-18T14:50:34.251Z,8.47
2018-05-18T14:53:01.699Z,6.30
2018-05-18T14:55:29.166Z,7.83
2018-05-18T14:57:56.715Z,7.50
2018-05-18T15:00:24.275Z,7.23
2018-05-18T15:02:51.732Z,7.10
2018-05-18T15:05:19.203Z,7.87
2018-05-18T15:07:47.439Z,7.40
2018-05-18T15:10:14.912Z,7.33
2018-05-18T15:12:42.391Z,6.90
2018-05-18T15:15:09.868Z,6.33
2018-05-18T15:17:38.183Z,6.53
2018-05-18T15:20:05.627Z,6.70
2018-05-18T15:22:33.145Z,7.40
2018-05-18T15:25:02.254Z,7.33
2018-05-18T15:27:30.477Z,7.13
2018-05-18T15:29:57.928Z,8.63
2018-05-18T15:32:25.406Z,7.00
2018-05-18T15:34:53.611Z,7.07
2018-05-18T15:37:22.109Z,6.73
2018-05-18T15:39:49.782Z,6.40
2018-05-18T15:42:18.375Z,6.80
2018-05-18T15:44:46.079Z,7.73
2018-05-18T15:47:13.620Z,7.37
2018-05-18T15:49:41.240Z,6.67
2018-05-18T15:52:09.106Z,7.70
2018-05-18T15:54:36.547Z,7.20
2018-05-18T15:57:04.058Z,6.70
2018-05-18T15:59:31.534Z,6.53
2018-05-18T16:01:59.748Z,6.93
2018-05-18T16:04:27.303Z,8.40
2018-05-18T16:06:54.688Z,7.03
2018-05-18T16:09:22.139Z,6.13
2018-05-18T16:11:51.650Z,6.23
2018-05-18T16:14:19.205Z,6.03
2018-05-18T16:16:46.664Z,6.23
2018-05-18T16:19:15.089Z,6.50
2018-05-18T16:21:42.533Z,5.50
2018-05-18T16:24:10.774Z,6.30
2018-05-18T16:26:38.213Z,6.47
2018-05-18T16:29:05.787Z,6.40
2018-05-18T16:31:34.276Z,6.27
2018-05-18T16:34:01.824Z,6.00
2018-05-18T16:36:30.238Z,5.90
2018-05-18T16:38:58.489Z,5.90
2018-05-18T16:41:26.045Z,7.23
2018-05-18T16:43:53.586Z,6.27
2018-05-18T16:46:22.074Z,6.70
2018-05-18T16:48:49.619Z,6.37
2018-05-18T16:51:17.285Z,6.60
2018-05-18T16:53:44.830Z,6.30
2018-05-18T16:56:12.290Z,6.23
2018-05-18T16:58:40.461Z,7.30
2018-05-18T17:01:07.913Z,6.50
2018-05-18T17:03:36.402Z,6.27
2018-05-18T17:06:04.774Z,6.73
2018-05-18T17:08:32.239Z,6.10
2018-05-18T17:10:59.842Z,5.17
2018-05-18T17:13:28.062Z,5.90
2018-05-18T17:15:55.515Z,6.03
2018-05-18T17:18:23.117Z,6.20
2018-05-18T17:20:51.333Z,6.80
2018-05-18T17:23:20.483Z,5.87
2018-05-18T17:25:49.650Z,6.20
2018-05-18T17:28:18.766Z,5.83
2018-05-18T17:30:47.949Z,6.30
2018-05-18T17:33:17.038Z,5.97
2018-05-18T17:35:46.238Z,5.93
2018-05-18T17:38:15.430Z,5.63
2018-05-18T17:40:44.524Z,6.17
2018-05-18T17:43:14.950Z,5.53
2018-05-18T17:45:44.127Z,4.90
2018-05-18T17:48:13.292Z,6.23
2018-05-18T17:50:42.649Z,5.53
2018-05-18T17:53:11.841Z,6.50
2018-05-18T17:55:40.937Z,5.17
2018-05-18T17:58:10.037Z,5.60
2018-05-18T18:00:39.232Z,5.73
2018-05-18T18:03:08.487Z,7.30
2018-05-18T18:05:37.611Z,5.90
2018-05-18T18:08:06.770Z,6.17
2018-05-18T18:10:36.284Z,5.50
2018-05-18T18:13:05.518Z,5.80
2018-05-18T18:15:37.398Z,5.60
2018-05-18T18:18:06.870Z,6.37
2018-05-18T18:20:35.982Z,6.33
2018-05-18T18:23:05.081Z,5.40
2018-05-18T18:25:34.221Z,5.30
2018-05-18T18:28:03.354Z,5.77
2018-05-18T18:30:32.459Z,5.60
2018-05-18T18:33:02.556Z,5.90
2018-05-18T18:35:31.770Z,6.07
2018-05-18T18:38:00.969Z,6.17
2018-05-18T18:40:30.058Z,6.30
2018-05-18T18:42:59.260Z,6.40
2018-05-18T18:45:28.385Z,6.50
2018-05-18T18:47:57.531Z,5.70
2018-05-18T18:50:26.803Z,5.00
2018-05-18T18:52:55.888Z,5.40
2018-05-18T18:55:25.040Z,5.73
2018-05-18T18:57:54.091Z,5.90
2018-05-18T19:00:24.093Z,6.30
2018-05-18T19:02:53.213Z,5.40
2018-05-18T19:05:22.449Z,5.93
2018-05-18T19:07:51.592Z,5.90
2018-05-18T19:10:20.768Z,5.20
2018-05-18T19:12:49.992Z,5.40
2018-05-18T19:15:19.244Z,6.67
2018-05-18T19:17:48.278Z,5.50
2018-05-18T19:20:17.900Z,5.77
2018-05-18T19:22:47.031Z,5.57
2018-05-18T19:25:16.178Z,5.53
2018-05-18T19:27:45.662Z,5.97
2018-05-18T19:30:15.950Z,6.40
2018-05-18T19:32:45.095Z,5.97
2018-05-18T19:35:15.341Z,7.07
2018-05-18T19:37:44.489Z,5.90
2018-05-18T19:40:14.708Z,6.47
2018-05-18T19:42:43.885Z,6.47
2018-05-18T19:45:14.042Z,6.43
2018-05-18T19:47:43.208Z,6.40
2018-05-18T19:50:12.415Z,6.80
2018-05-18T19:52:41.559Z,6.07
2018-05-18T19:55:10.679Z,6.00
2018-05-18T19:57:42.126Z,6.33
2018-05-18T20:00:13.313Z,7.40
2018-05-18T20:02:44.344Z,6.20
2018-05-18T20:05:13.772Z,5.80
2018-05-18T20:07:42.898Z,7.13
2018-05-18T20:10:12.082Z,7.03
2018-05-18T20:12:41.198Z,6.07
2018-05-18T20:15:10.324Z,7.10
2018-05-18T20:17:39.542Z,6.50
2018-05-18T20:20:08.722Z,8.07
2018-05-18T20:22:37.841Z,7.50
2018-05-18T20:25:07.264Z,6.77
2018-05-18T20:27:36.517Z,6.80
2018-05-18T20:30:09.037Z,7.43
2018-05-18T20:32:38.231Z,7.50
2018-05-18T20:35:07.413Z,7.40
2018-05-18T20:37:36.630Z,7.43
2018-05-18T20:40:05.845Z,6.57
2018-05-18T20:42:34.985Z,7.20
2018-05-18T20:45:04.095Z,6.57
2018-05-18T20:47:33.187Z,8.20
2018-05-18T20:50:02.286Z,7.10
2018-05-18T20:52:31.785Z,6.37
2018-05-18T20:55:01.901Z,6.90
2018-05-18T20:57:31.108Z,7.60
2018-05-18T21:00:01.225Z,7.40
2018-05-18T21:02:30.413Z,6.80
2018-05-18T21:04:59.632Z,7.80
2018-05-18T21:07:28.820Z,7.30
2018-05-18T21:09:58.000Z,7.70
2018-05-18T21:12:27.228Z,8.50
2018-05-18T21:14:56.397Z,7.70
2018-05-18T21:17:25.504Z,7.53
2018-05-18T21:19:54.697Z,7.93
2018-05-18T21:22:23.857Z,7.50
2018-05-18T21:24:52.998Z,7.77
2018-05-18T21:27:22.173Z,7.70
2018-05-18T21:29:51.382Z,7.67
2018-05-18T21:32:21.506Z,7.97
2018-05-18T21:34:50.690Z,8.17
2018-05-18T21:37:19.912Z,8.33
2018-05-18T21:39:49.195Z,8.37
2018-05-18T21:42:18.311Z,8.37
2018-05-18T21:44:47.607Z,8.30
2018-05-18T21:47:16.784Z,7.80
2018-05-18T21:49:46.902Z,6.63
2018-05-18T21:52:16.045Z,9.10
2018-05-18T21:54:45.179Z,8.17
2018-05-18T21:57:14.411Z,8.70
2018-05-18T21:59:43.634Z,7.93
2018-05-18T22:02:12.774Z,9.00
2018-05-18T22:04:41.896Z,7.63
2018-05-18T22:07:11.067Z,9.40
2018-05-18T22:11:57.377Z,9.90
2018-05-18T22:14:27.130Z,10.73
2018-05-18T22:16:57.026Z,8.93
2018-05-18T22:19:26.802Z,9.13
2018-05-18T22:21:56.592Z,9.63
2018-05-18T22:24:26.410Z,9.40
2018-05-18T22:26:56.253Z,10.30
2018-05-18T22:29:25.983Z,9.43
2018-05-18T22:31:55.738Z,9.60
2018-05-18T22:34:25.569Z,9.97
2018-05-18T22:36:55.312Z,9.77
2018-05-18T22:39:25.091Z,9.10
2018-05-18T22:41:54.829Z,10.03
2018-05-18T22:44:24.570Z,8.80
2018-05-18T22:46:54.337Z,10.70
2018-05-18T22:49:24.099Z,10.67
2018-05-18T22:51:53.976Z,9.73
2018-05-18T22:54:23.745Z,9.63
2018-05-18T22:56:53.534Z,9.90
2018-05-18T22:59:23.680Z,10.63
2018-05-18T23:01:53.438Z,10.80
2018-05-18T23:04:23.206Z,11.13
2018-05-18T23:06:53.145Z,10.47
2018-05-18T23:09:22.891Z,9.87
2018-05-18T23:11:53.557Z,10.93
2018-05-18T23:14:23.652Z,9.90
2018-05-18T23:16:53.471Z,10.67
2018-05-18T23:19:23.221Z,11.37
2018-05-18T23:21:52.976Z,9.90
2018-05-18T23:24:22.805Z,10.07
2018-05-18T23:26:52.547Z,11.23
2018-05-18T23:29:22.317Z,11.37
2018-05-18T23:31:52.086Z,10.33
2018-05-18T23:34:22.059Z,11.27
2018-05-18T23:36:51.845Z,10.20
2018-05-18T23:39:21.593Z,10.30
2018-05-18T23:41:51.637Z,10.80
2018-05-18T23:44:21.511Z,11.30
2018-05-18T23:46:51.351Z,11.00
2018-05-18T23:49:21.074Z,12.03
2018-05-18T23:51:51.020Z,11.37
2018-05-18T23:54:20.826Z,11.40
2018-05-18T23:56:50.641Z,11.17
2018-05-18T23:59:20.458Z,10.17
